Time;durP1;ratioP1;P1;durP2;ratioP2;P2;SDS_P1;SDS_P2;PMS_P1;PMS_P2;Temp;Humidity;BMP_temperature;BMP_pressure;BME280_temperature;BME280_humidity;BME280_pressure;Samples;Min_cycle;Max_cycle;Signal;HPM_P1;HPM_P2
2023/05/28 00:01:40;;;;;;;2.80;1.57;;;;;;;13.75;63.18;99840.00;5036365;28;20041;-70
2023/05/28 00:04:09;;;;;;;0.70;0.63;;;;;;;13.73;63.30;99844.31;5036404;28;20270;-72
2023/05/28 00:06:38;;;;;;;0.63;0.63;;;;;;;13.70;63.33;99840.94;5036591;28;20430;-73
2023/05/28 00:09:09;;;;;;;0.70;0.70;;;;;;;13.74;63.33;99853.72;5036267;28;20073;-74
2023/05/28 00:11:38;;;;;;;0.45;0.45;;;;;;;13.87;63.54;99846.72;5036239;28;20282;-73
2023/05/28 00:14:07;;;;;;;0.60;0.60;;;;;;;14.00;63.07;99840.59;5036144;28;20041;-69
2023/05/28 00:16:37;;;;;;;2.72;1.05;;;;;;;14.13;62.86;99848.13;5036136;28;20076;-69
2023/05/28 00:19:09;;;;;;;2.63;0.90;;;;;;;14.18;62.46;99842.91;5036559;28;20128;-69
2023/05/28 00:21:38;;;;;;;0.73;0.73;;;;;;;14.23;61.97;99842.88;5036320;28;20395;-70
2023/05/28 00:24:07;;;;;;;2.30;1.38;;;;;;;14.32;61.52;99851.34;5036232;28;20128;-69
2023/05/28 00:26:37;;;;;;;0.80;0.80;;;;;;;14.32;61.02;99848.78;5035647;28;20075;-72
2023/05/28 00:29:06;;;;;;;0.52;0.52;;;;;;;14.31;61.33;99847.06;5035555;28;20050;-69
2023/05/28 00:31:35;;;;;;;1.38;0.60;;;;;;;14.22;61.77;99847.16;5035798;28;20049;-70
2023/05/28 00:34:04;;;;;;;1.00;0.90;;;;;;;14.13;62.27;99839.59;5035854;28;20045;-73
2023/05/28 00:36:35;;;;;;;1.27;1.10;;;;;;;14.10;62.72;99843.03;5034568;28;20495;-69
2023/05/28 00:39:04;;;;;;;0.50;0.50;;;;;;;14.13;62.54;99839.59;5035685;28;20052;-73
2023/05/28 00:41:35;;;;;;;1.23;0.88;;;;;;;14.17;62.20;99835.25;5036020;28;20132;-68
2023/05/28 00:44:05;;;;;;;2.22;1.27;;;;;;;14.19;62.34;99831.78;5036250;28;20115;-71
2023/05/28 00:46:34;;;;;;;0.90;0.90;;;;;;;14.15;62.40;99835.28;5035443;28;20557;-69
2023/05/28 00:49:05;;;;;;;1.52;1.08;;;;;;;14.04;62.54;99834.53;5034332;28;20046;-69
2023/05/28 00:51:36;;;;;;;7.38;1.00;;;;;;;14.01;62.08;99832.03;5035503;28;20048;-70
2023/05/28 00:54:05;;;;;;;0.77;0.75;;;;;;;13.96;62.13;99833.81;5035444;28;20050;-69
2023/05/28 00:56:34;;;;;;;0.75;0.75;;;;;;;13.97;62.21;99827.78;5034193;28;20042;-70
2023/05/28 00:59:06;;;;;;;1.08;0.77;;;;;;;13.91;62.42;99830.44;5034129;28;20053;-72
2023/05/28 01:01:36;;;;;;;0.40;0.40;;;;;;;13.91;62.39;99835.56;5035583;28;20057;-69
2023/05/28 01:04:06;;;;;;;0.30;0.30;;;;;;;13.90;62.99;99837.28;5035216;28;20049;-69
2023/05/28 01:06:39;;;;;;;1.77;1.25;;;;;;;13.84;62.82;99832.25;5035191;28;20132;-71
2023/05/28 01:09:08;;;;;;;0.75;0.75;;;;;;;13.83;62.88;99833.09;5035253;28;20053;-73
2023/05/28 01:11:40;;;;;;;0.55;0.55;;;;;;;13.88;62.81;99840.72;5035757;28;20053;-72
2023/05/28 01:14:11;;;;;;;1.92;0.93;;;;;;;13.87;63.05;99839.88;5035121;28;20499;-70
2023/05/28 01:16:42;;;;;;;1.10;1.00;;;;;;;13.76;63.89;99828.03;5035326;28;20053;-71
2023/05/28 01:19:16;;;;;;;0.52;0.52;;;;;;;13.72;63.71;99819.56;5034928;28;20069;-72
2023/05/28 01:21:48;;;;;;;1.15;1.05;;;;;;;13.70;63.91;99823.00;5034995;28;20049;-72
2023/05/28 01:24:18;;;;;;;0.82;0.82;;;;;;;13.73;63.64;99825.50;5035180;28;20041;-69
2023/05/28 01:26:47;;;;;;;0.68;0.68;;;;;;;13.71;63.69;99824.69;5033667;28;20056;-69
2023/05/28 01:29:19;;;;;;;1.08;0.98;;;;;;;13.71;63.82;99822.09;5034793;28;20100;-72
2023/05/28 01:31:48;;;;;;;0.70;0.70;;;;;;;13.67;63.81;99821.31;5033891;28;20053;-69
2023/05/28 01:34:17;;;;;;;0.83;0.70;;;;;;;13.58;64.04;99825.69;5033736;28;20155;-70
2023/05/28 01:36:52;;;;;;;0.40;0.40;;;;;;;13.54;64.29;99816.31;5033547;28;20060;-69
2023/05/28 01:39:25;;;;;;;0.73;0.70;;;;;;;13.48;63.97;99818.94;5034715;28;20045;-72
2023/05/28 01:41:56;;;;;;;1.08;0.80;;;;;;;13.44;64.51;99813.84;5033393;28;20052;-69
2023/05/28 01:44:25;;;;;;;1.95;1.13;;;;;;;13.40;64.45;99817.31;5034766;28;20402;-70
2023/05/28 01:46:54;;;;;;;2.63;1.38;;;;;;;13.45;64.56;99809.56;5034276;28;20056;-72
2023/05/28 01:49:23;;;;;;;0.93;0.93;;;;;;;13.43;64.54;99809.59;5033220;28;20045;-71
2023/05/28 01:51:52;;;;;;;0.40;0.40;;;;;;;13.36;64.33;99814.81;5034648;28;20053;-69
2023/05/28 01:54:23;;;;;;;0.85;0.85;;;;;;;13.27;64.95;99810.59;5034220;28;20042;-70
2023/05/28 01:56:52;;;;;;;0.68;0.40;;;;;;;13.28;64.97;99807.19;5034285;28;20057;-72
2023/05/28 01:59:20;;;;;;;0.80;0.80;;;;;;;13.33;64.90;99810.56;5032943;28;20041;-72
2023/05/28 02:01:50;;;;;;;1.17;0.70;;;;;;;13.33;65.00;99813.13;5033302;28;20132;-69
2023/05/28 02:04:19;;;;;;;0.70;0.70;;;;;;;13.21;65.33;99805.53;5033181;28;20545;-69
2023/05/28 02:06:48;;;;;;;0.80;0.75;;;;;;;13.15;65.34;99808.16;5033123;28;20143;-69
2023/05/28 02:09:17;;;;;;;1.30;1.20;;;;;;;13.12;65.36;99807.34;5034105;28;20095;-69
2023/05/28 02:11:47;;;;;;;0.80;0.80;;;;;;;13.21;65.55;99808.09;5032869;28;20034;-69
2023/05/28 02:14:16;;;;;;;3.97;1.30;;;;;;;13.29;65.46;99806.28;5034295;28;20055;-69
2023/05/28 02:16:49;;;;;;;1.30;1.15;;;;;;;13.32;65.44;99803.72;5033879;28;20136;-69
2023/05/28 02:19:19;;;;;;;0.88;0.82;;;;;;;13.36;65.66;99800.25;5033842;28;20041;-69
2023/05/28 02:21:48;;;;;;;1.88;1.35;;;;;;;13.28;65.46;99807.19;5032725;28;20443;-72
2023/05/28 02:24:17;;;;;;;2.00;0.80;;;;;;;13.23;65.68;99803.81;5034133;28;20041;-69
2023/05/28 02:26:47;;;;;;;0.40;0.40;;;;;;;13.26;65.58;99805.50;5033739;28;20124;-69
2023/05/28 02:29:16;;;;;;;6.75;2.22;;;;;;;13.23;65.57;99814.06;5032910;28;20278;-69
2023/05/28 02:31:44;;;;;;;1.10;1.00;;;;;;;13.20;65.68;99808.97;5033735;28;20480;-69
2023/05/28 02:34:14;;;;;;;0.77;0.68;;;;;;;13.16;65.51;99811.56;5032783;28;20467;-69
2023/05/28 02:36:43;;;;;;;0.50;0.50;;;;;;;13.11;65.79;99811.63;5032803;28;20092;-72
2023/05/28 02:39:13;;;;;;;2.33;1.52;;;;;;;13.02;66.08;99813.38;5032703;28;20054;-69
2023/05/28 02:41:43;;;;;;;1.85;1.50;;;;;;;13.04;66.38;99815.06;5032523;28;20518;-73
2023/05/28 02:44:13;;;;;;;0.50;0.50;;;;;;;13.03;66.50;99812.53;5033551;28;20067;-69
2023/05/28 02:46:42;;;;;;;0.73;0.73;;;;;;;13.01;65.99;99812.50;5033225;28;20104;-70
2023/05/28 02:49:11;;;;;;;0.60;0.60;;;;;;;12.98;66.29;99816.84;5033600;28;20101;-71
2023/05/28 02:51:40;;;;;;;0.73;0.73;;;;;;;12.95;66.29;99816.84;5015861;28;20384;-70
2023/05/28 02:54:29;;;;;;;1.00;0.95;;;;;;;12.94;66.29;99815.13;5033189;28;20048;-69
2023/05/28 02:56:59;;;;;;;0.80;0.80;;;;;;;12.90;66.21;99809.19;5032408;28;20442;-70
2023/05/28 02:59:29;;;;;;;0.80;0.80;;;;;;;12.86;66.28;99815.19;5032164;28;20056;-70
2023/05/28 03:02:00;;;;;;;0.70;0.70;;;;;;;12.87;66.36;99819.47;5032245;28;20053;-70
2023/05/28 03:04:29;;;;;;;0.77;0.77;;;;;;;12.85;66.75;99818.63;5032542;28;20124;-70
2023/05/28 03:06:58;;;;;;;0.70;0.70;;;;;;;12.82;66.70;99826.34;5032178;28;20055;-71
2023/05/28 03:09:27;;;;;;;0.50;0.50;;;;;;;12.85;66.79;99813.50;5032445;28;20278;-71
2023/05/28 03:11:56;;;;;;;3.37;2.13;;;;;;;12.85;67.11;99821.19;5032117;28;20041;-70
2023/05/28 03:14:24;;;;;;;0.57;0.57;;;;;;;12.86;67.45;99817.75;5032378;28;20325;-69
2023/05/28 03:16:55;;;;;;;1.10;1.00;;;;;;;12.82;67.82;99818.66;5032385;28;20041;-72
2023/05/28 03:19:25;;;;;;;1.92;1.83;;;;;;;12.85;67.85;99821.19;5033222;28;20099;-69
2023/05/28 03:21:54;;;;;;;1.27;1.00;;;;;;;12.85;67.86;99810.94;5031996;28;20056;-72
2023/05/28 03:24:26;;;;;;;0.38;0.38;;;;;;;12.88;67.65;99815.19;5032377;28;20117;-70
2023/05/28 03:26:58;;;;;;;0.47;0.47;;;;;;;12.87;67.46;99814.34;5033146;28;20071;-70
2023/05/28 03:29:27;;;;;;;0.80;0.80;;;;;;;12.84;67.80;99811.78;5032014;28;20072;-69
2023/05/28 03:32:08;;;;;;;0.75;0.75;;;;;;;12.85;67.99;99813.50;5033414;28;20055;-69
2023/05/28 03:34:37;;;;;;;1.10;0.93;;;;;;;12.87;67.96;99811.78;5033649;28;20049;-69
2023/05/28 03:37:08;;;;;;;2.33;1.05;;;;;;;12.94;67.78;99816.00;5033104;28;20053;-69
2023/05/28 03:39:39;;;;;;;1.67;1.17;;;;;;;13.00;67.44;99808.28;5033015;28;20045;-69
2023/05/28 03:42:08;;;;;;;0.50;0.50;;;;;;;13.04;67.06;99812.50;5033033;28;20037;-69
2023/05/28 03:44:37;;;;;;;0.98;0.98;;;;;;;13.11;66.79;99815.88;5031985;28;20053;-68
2023/05/28 03:47:08;;;;;;;;;;;;;;;13.11;66.89;99814.16;5031957;28;20045;-72
2023/05/28 03:49:37;;;;;;;0.57;0.57;;;;;;;13.10;66.77;99822.72;5031955;28;19927;-68
2023/05/28 03:52:07;;;;;;;0.70;0.67;;;;;;;13.20;66.92;99823.47;5031835;28;20041;-69
2023/05/28 03:54:46;;;;;;;6.53;1.60;;;;;;;13.24;66.84;99823.47;5031981;28;20054;-69
2023/05/28 03:57:15;;;;;;;2.20;0.87;;;;;;;13.26;67.08;99821.72;5032997;28;20072;-72
2023/05/28 03:59:44;;;;;;;0.40;0.40;;;;;;;13.31;66.80;99821.69;5032746;28;20128;-71
2023/05/28 04:02:14;;;;;;;1.10;1.03;;;;;;;13.35;66.63;99824.19;5032760;28;20036;-71
2023/05/28 04:04:43;;;;;;;0.38;0.38;;;;;;;13.38;66.63;99819.06;5035311;28;20358;-71
2023/05/28 04:07:12;;;;;;;0.88;0.85;;;;;;;13.42;66.57;99813.03;5035257;28;20049;-69
2023/05/28 04:09:41;;;;;;;1.88;1.70;;;;;;;13.42;66.10;99817.28;5035272;28;20565;-70
2023/05/28 04:12:10;;;;;;;0.88;0.88;;;;;;;13.39;65.68;99820.72;5035181;28;20088;-70
2023/05/28 04:14:41;;;;;;;4.15;1.77;;;;;;;13.39;65.40;99820.72;5036581;28;20083;-71
2023/05/28 04:17:11;;;;;;;0.90;0.88;;;;;;;13.40;65.53;99814.75;5035000;28;20042;-71
2023/05/28 04:19:42;;;;;;;0.75;0.75;;;;;;;13.41;65.20;99813.88;5035143;28;20037;-70
2023/05/28 04:22:11;;;;;;;1.33;1.23;;;;;;;13.40;64.97;99812.19;5036497;28;20188;-71
2023/05/28 04:24:40;;;;;;;0.60;0.60;;;;;;;13.35;64.92;99808.81;5034845;28;20129;-71
2023/05/28 04:27:09;;;;;;;0.40;0.40;;;;;;;13.37;65.05;99817.34;5034869;28;20045;-70
2023/05/28 04:29:37;;;;;;;1.30;1.20;;;;;;;13.38;65.37;99821.63;5036182;28;20038;-72
2023/05/28 04:32:09;;;;;;;1.65;1.15;;;;;;;13.48;65.23;99819.81;5035055;28;20044;-69
2023/05/28 04:34:41;;;;;;;3.13;1.65;;;;;;;13.59;65.01;99822.25;5034685;28;20057;-69
2023/05/28 04:37:13;;;;;;;1.92;1.00;;;;;;;13.71;64.59;99827.25;5034638;28;20045;-72
2023/05/28 04:39:43;;;;;;;1.60;1.27;;;;;;;13.90;64.77;99824.47;5034662;28;20049;-72
2023/05/28 04:42:16;;;;;;;0.40;0.40;;;;;;;14.01;64.39;99821.78;5034529;28;20041;-72
2023/05/28 04:44:45;;;;;;;2.80;0.77;;;;;;;14.24;64.37;99819.75;5035697;28;20496;-71
2023/05/28 04:47:15;;;;;;;2.30;0.88;;;;;;;14.47;64.25;99822.88;5035201;28;20099;-69
2023/05/28 04:49:44;;;;;;;0.77;0.77;;;;;;;14.59;63.75;99821.84;5035594;28;20044;-72
2023/05/28 04:52:14;;;;;;;1.35;1.25;;;;;;;14.70;63.51;99820.84;5035049;28;20348;-71
2023/05/28 04:54:45;;;;;;;0.60;0.60;;;;;;;14.85;63.16;99824.88;5035842;28;20060;-70
2023/05/28 04:57:14;;;;;;;0.90;0.90;;;;;;;14.95;62.64;99826.41;5034636;28;20088;-71
2023/05/28 04:59:43;;;;;;;1.85;1.50;;;;;;;14.91;62.38;99829.06;5035262;28;20048;-71
2023/05/28 05:02:13;;;;;;;1.25;0.93;;;;;;;15.03;62.79;99828.88;5035298;28;20061;-72
2023/05/28 05:04:42;;;;;;;0.82;0.82;;;;;;;15.21;62.40;99828.59;5034157;28;20049;-72
2023/05/28 05:07:12;;;;;;;0.40;0.40;;;;;;;15.34;62.42;99830.03;5034187;28;20111;-72
2023/05/28 05:09:42;;;;;;;1.17;1.05;;;;;;;15.49;62.46;99827.25;5033989;28;20047;-72
2023/05/28 05:12:11;;;;;;;0.60;0.60;;;;;;;15.65;62.09;99826.06;5033986;28;20049;-72
2023/05/28 05:14:42;;;;;;;0.75;0.75;;;;;;;15.72;61.80;99827.66;5034665;28;20049;-73
2023/05/28 05:17:11;;;;;;;0.70;0.70;;;;;;;15.77;61.88;99824.97;5033936;28;20551;-73
2023/05/28 05:19:40;;;;;;;0.60;0.60;;;;;;;15.93;60.79;99834.94;5034973;28;20290;-73
2023/05/28 05:22:09;;;;;;;2.25;1.15;;;;;;;16.02;60.34;99839.94;5033637;28;20041;-73
2023/05/28 05:24:40;;;;;;;3.25;0.95;;;;;;;16.00;60.10;99836.53;5035242;28;20058;-73
2023/05/28 05:27:10;;;;;;;0.95;0.95;;;;;;;16.09;59.41;99835.50;5033676;28;20049;-72
2023/05/28 05:29:39;;;;;;;0.63;0.63;;;;;;;16.09;59.21;99833.78;5033667;28;20049;-73
2023/05/28 05:32:09;;;;;;;1.45;1.33;;;;;;;16.17;59.59;99836.19;5034707;28;20048;-72
2023/05/28 05:34:37;;;;;;;;;;;;;;;16.28;59.26;99833.38;5017706;28;20053;-74
2023/05/28 05:37:17;;;;;;;1.13;1.02;;;;;;;16.38;58.65;99843.47;5035076;28;19921;-74
2023/05/28 05:39:57;;;;;;;0.65;0.65;;;;;;;16.44;58.69;99834.72;5034624;28;20049;-73
2023/05/28 05:42:38;;;;;;;2.67;1.50;;;;;;;16.43;58.71;99838.22;5034901;28;20486;-73
2023/05/28 05:45:09;;;;;;;0.82;0.50;;;;;;;16.52;58.80;99835.47;5033354;28;20553;-74
2023/05/28 05:47:39;;;;;;;0.60;0.60;;;;;;;16.75;58.25;99836.63;5033272;28;20513;-73
2023/05/28 05:50:12;;;;;;;0.47;0.47;;;;;;;16.86;58.01;99826.06;5033252;28;20068;-73
2023/05/28 05:52:41;;;;;;;1.77;0.93;;;;;;;17.04;58.08;99838.50;5034630;28;20071;-73
2023/05/28 05:55:12;;;;;;;0.63;0.63;;;;;;;17.22;57.62;99832.91;5034376;28;20041;-73
2023/05/28 05:57:43;;;;;;;0.82;0.80;;;;;;;17.34;57.38;99831.75;5034318;28;20034;-73
2023/05/28 06:00:14;;;;;;;0.98;0.77;;;;;;;17.34;57.52;99822.28;5034623;28;20128;-73
2023/05/28 06:02:52;;;;;;;0.70;0.70;;;;;;;17.38;57.46;99829.03;5034507;28;20076;-73
2023/05/28 06:05:33;;;;;;;0.40;0.40;;;;;;;17.52;57.52;99830.44;5033833;28;20487;-73
2023/05/28 06:08:10;;;;;;;2.40;1.00;;;;;;;17.60;57.06;99825.94;5049542;28;20053;-73
2023/05/28 06:11:03;;;;;;;0.50;0.50;;;;;;;17.65;56.61;99826.66;5025672;28;20406;-74
2023/05/28 06:13:35;;;;;;;0.63;0.63;;;;;;;17.70;56.97;99829.97;5032781;28;20049;-74
2023/05/28 06:16:04;;;;;;;0.70;0.70;;;;;;;17.70;56.44;99832.53;5032712;28;20041;-74
2023/05/28 06:18:34;;;;;;;;;;;;;;;17.81;56.60;99827.91;5033107;28;20037;-74
2023/05/28 06:21:04;;;;;;;0.65;0.65;;;;;;;17.99;56.63;99838.59;5032682;28;19920;-75
2023/05/28 06:23:35;;;;;;;0.40;0.40;;;;;;;18.07;55.95;99830.63;5032648;28;20045;-74
2023/05/28 06:26:04;;;;;;;0.95;0.90;;;;;;;18.13;55.61;99840.78;5031835;28;20580;-74
2023/05/28 06:28:35;;;;;;;0.70;0.70;;;;;;;18.22;54.61;99830.19;5033626;28;20042;-74
2023/05/28 06:31:04;;;;;;;1.95;0.57;;;;;;;18.39;54.27;99837.44;5049062;28;20045;-72
2023/05/28 06:33:33;;;;;;;1.10;1.00;;;;;;;18.39;53.55;99830.53;5033605;28;20069;-74
2023/05/28 06:36:02;;;;;;;;;;;;;;;18.51;53.35;99835.38;5034014;28;20052;-73
2023/05/28 06:38:31;;;;;;;0.55;0.55;;;;;;;18.60;52.92;99832.50;5032381;28;19921;-75
2023/05/28 06:41:00;;;;;;;1.42;1.33;;;;;;;18.65;52.56;99830.63;5049075;28;20073;-74
2023/05/28 06:43:35;;;;;;;0.43;0.43;;;;;;;18.65;52.24;99830.63;5032678;28;20045;-72
2023/05/28 06:46:17;;;;;;;0.80;0.80;;;;;;;18.61;51.98;99818.69;5033283;28;20038;-73
2023/05/28 06:48:46;;;;;;;0.55;0.55;;;;;;;18.71;52.32;99820.06;5032543;28;20463;-72
2023/05/28 06:51:15;;;;;;;1.92;0.60;;;;;;;18.84;52.80;99824.84;5033554;28;20041;-73
2023/05/28 06:53:44;;;;;;;2.67;1.47;;;;;;;18.94;52.47;99815.91;5032292;28;20037;-73
2023/05/28 06:56:15;;;;;;;1.42;1.33;;;;;;;18.96;52.63;99821.88;5033546;28;20073;-73
2023/05/28 06:58:57;;;;;;;0.52;0.52;;;;;;;18.91;53.07;99816.03;5033494;28;20050;-73
2023/05/28 07:01:43;;;;;;;0.70;0.70;;;;;;;19.05;53.40;99821.59;5033313;28;20136;-74
2023/05/28 07:04:23;;;;;;;0.50;0.50;;;;;;;19.16;53.24;99807.41;5034269;28;20049;-72
2023/05/28 07:06:56;;;;;;;0.50;0.50;;;;;;;19.38;53.10;99825.66;5033611;28;20059;-72
2023/05/28 07:09:30;;;;;;;2.38;0.98;;;;;;;19.54;52.29;99828.56;5033386;28;20139;-73
2023/05/28 07:12:00;;;;;;;1.52;0.85;;;;;;;19.55;51.65;99825.94;5048680;28;20503;-73
2023/05/28 07:14:33;;;;;;;0.50;0.50;;;;;;;19.62;51.58;99817.06;5032176;28;20491;-73
2023/05/28 07:17:03;;;;;;;1.15;0.80;;;;;;;19.62;51.46;99819.63;5033284;28;20053;-73
2023/05/28 07:19:33;;;;;;;0.82;0.82;;;;;;;19.60;51.07;99818.84;5033292;28;20050;-74
2023/05/28 07:22:02;;;;;;;2.03;1.20;;;;;;;19.75;51.32;99807.94;5031994;28;20061;-73
2023/05/28 07:24:33;;;;;;;0.80;0.70;;;;;;;19.97;50.69;99811.44;5032002;28;20573;-73
2023/05/28 07:27:02;;;;;;;0.40;0.40;;;;;;;19.98;49.90;99807.97;5048938;28;20048;-72
2023/05/28 07:29:33;;;;;;;0.93;0.88;;;;;;;20.14;50.07;99810.81;5031829;28;20132;-74
2023/05/28 07:32:02;;;;;;;0.85;0.73;;;;;;;20.34;49.34;99815.28;5033654;28;20386;-72
2023/05/28 07:34:36;;;;;;;0.85;0.85;;;;;;;20.45;49.03;99815.69;5048619;28;20080;-72
2023/05/28 07:37:06;;;;;;;0.40;0.40;;;;;;;20.55;48.47;99806.66;5050624;28;20072;-74
2023/05/28 07:39:37;;;;;;;0.68;0.68;;;;;;;20.39;47.80;99805.56;5037017;28;20111;-75
2023/05/28 07:42:07;;;;;;;0.82;0.82;;;;;;;20.42;47.97;99805.47;5036666;28;20048;-72
2023/05/28 07:44:42;;;;;;;0.50;0.50;;;;;;;20.59;48.55;99797.84;5036254;28;20402;-72
2023/05/28 07:47:11;;;;;;;5.13;0.70;;;;;;;20.80;48.69;99793.56;5036490;28;20057;-72
2023/05/28 07:49:50;;;;;;;0.60;0.60;;;;;;;20.99;49.21;99795.34;5036701;28;20491;-74
2023/05/28 07:52:23;;;;;;;4.00;0.75;;;;;;;21.03;49.64;99794.31;5036779;28;20072;-73
2023/05/28 07:54:52;;;;;;;;;;;;;;;21.19;49.76;99790.19;5035966;28;20514;-75
2023/05/28 07:57:22;;;;;;;0.50;0.50;;;;;;;21.20;49.81;99793.63;5036581;28;19960;-73
2023/05/28 07:59:52;;;;;;;0.60;0.60;;;;;;;21.38;50.17;99784.22;5051864;28;20041;-74
2023/05/28 08:02:22;;;;;;;1.20;0.95;;;;;;;21.56;49.55;99788.63;5035589;28;20069;-74
2023/05/28 08:04:53;;;;;;;2.13;1.45;;;;;;;21.41;48.89;99778.88;5036449;28;20053;-73
2023/05/28 08:07:22;;;;;;;0.63;0.63;;;;;;;21.51;48.98;99780.19;5035142;28;20049;-73
2023/05/28 08:09:51;;;;;;;1.60;1.50;;;;;;;21.67;49.34;99770.78;5031878;28;20057;-74
2023/05/28 08:12:23;;;;;;;0.80;0.77;;;;;;;21.95;48.87;99779.09;5036197;28;20080;-75
2023/05/28 08:14:54;;;;;;;;;;;;;;;21.89;47.75;99779.34;5035560;28;20128;-74
2023/05/28 08:17:24;;;;;;;0.70;0.70;;;;;;;21.96;47.76;99767.75;5035041;28;19921;-74
2023/05/28 08:20:03;;;;;;;1.90;1.73;;;;;;;22.11;48.19;99771.41;5036177;28;20491;-72
2023/05/28 08:22:55;;;;;;;1.50;0.93;;;;;;;22.24;47.71;99778.59;5036211;28;20045;-73
2023/05/28 08:25:24;;;;;;;1.40;1.00;;;;;;;22.39;47.51;99764.84;5036182;28;20087;-74
2023/05/28 08:28:02;;;;;;;2.38;1.10;;;;;;;22.36;46.45;99766.78;5036319;28;20483;-75
2023/05/28 08:30:32;;;;;;;0.43;0.43;;;;;;;22.31;45.98;99764.38;5034721;28;20049;-72
2023/05/28 08:33:10;;;;;;;1.05;0.95;;;;;;;22.27;44.72;99762.81;5034669;28;20050;-73
2023/05/28 08:35:39;;;;;;;0.55;0.52;;;;;;;22.27;43.93;99768.03;5034609;28;20049;-72
2023/05/28 08:38:09;;;;;;;0.52;0.52;;;;;;;22.32;44.16;99771.25;5035752;28;20081;-72
2023/05/28 08:40:51;;;;;;;0.47;0.47;;;;;;;22.43;43.04;99758.59;5033946;28;20053;-74
2023/05/28 08:43:20;;;;;;;0.73;0.60;;;;;;;22.43;42.41;99756.00;5023376;28;20054;-74
2023/05/28 08:45:52;;;;;;;1.75;0.93;;;;;;;22.50;42.22;99757.41;5024751;28;20047;-72
2023/05/28 08:48:29;;;;;;;0.65;0.65;;;;;;;22.86;43.32;99746.97;5023757;28;20038;-71
2023/05/28 08:50:58;;;;;;;1.10;0.60;;;;;;;23.03;43.82;99751.34;5023124;28;20049;-71
2023/05/28 08:53:38;;;;;;;1.35;0.65;;;;;;;22.89;43.10;99753.78;5025281;28;20077;-73
2023/05/28 08:56:09;;;;;;;0.65;0.65;;;;;;;22.92;41.47;99751.00;5041252;28;20038;-73
2023/05/28 08:58:40;;;;;;;0.40;0.40;;;;;;;22.95;40.28;99750.88;5025814;28;20123;-73
2023/05/28 09:01:11;;;;;;;0.60;0.60;;;;;;;23.10;41.49;99755.31;5023151;28;20038;-74
2023/05/28 09:03:55;;;;;;;7.10;1.77;;;;;;;23.39;42.41;99756.47;5040216;28;20096;-73
2023/05/28 09:06:31;;;;;;;0.73;0.73;;;;;;;23.59;42.17;99749.28;5019410;28;20050;-73
2023/05/28 09:09:02;;;;;;;1.15;1.05;;;;;;;23.69;42.11;99745.25;5030707;28;20108;-74
2023/05/28 09:11:51;;;;;;;0.80;0.80;;;;;;;23.73;42.44;99736.34;4998049;28;20054;-74
2023/05/28 09:14:20;;;;;;;0.40;0.40;;;;;;;23.66;41.94;99742.81;5033097;28;20029;-74
2023/05/28 09:16:52;;;;;;;0.63;0.63;;;;;;;23.66;41.10;99744.59;5022560;28;20049;-73
2023/05/28 09:19:28;;;;;;;1.17;0.98;;;;;;;23.71;40.14;99732.97;5022741;28;20038;-73
2023/05/28 09:22:01;;;;;;;0.60;0.60;;;;;;;23.81;40.58;99738.53;5026775;28;20045;-73
2023/05/28 09:24:38;;;;;;;1.92;1.50;;;;;;;24.06;41.98;99733.69;5035209;28;20072;-73
2023/05/28 09:27:19;;;;;;;0.60;0.60;;;;;;;24.18;40.91;99733.06;5034958;28;20512;-74
2023/05/28 09:29:50;;;;;;;1.67;1.25;;;;;;;24.11;39.22;99717.81;5035125;28;20045;-74
2023/05/28 09:32:21;;;;;;;3.67;1.25;;;;;;;23.85;38.71;99730.47;5034758;28;20045;-71
2023/05/28 09:34:51;;;;;;;0.65;0.65;;;;;;;23.88;39.41;99724.25;5035050;28;20119;-73
2023/05/28 09:37:22;;;;;;;1.02;0.93;;;;;;;23.96;41.01;99722.94;5034682;28;20064;-73
2023/05/28 09:40:01;;;;;;;2.20;1.52;;;;;;;24.02;40.31;99722.56;5034674;28;20049;-73
2023/05/28 09:42:34;;;;;;;3.60;1.65;;;;;;;24.07;39.40;99713.72;5035025;28;20438;-74
2023/05/28 09:45:04;;;;;;;0.65;0.65;;;;;;;24.07;39.77;99714.53;5034598;28;20049;-73
2023/05/28 09:47:34;;;;;;;;;;;;;;;24.13;39.43;99713.34;5034663;28;20128;-73
2023/05/28 09:50:03;;;;;;;0.55;0.55;;;;;;;23.95;39.19;99716.00;5034705;28;19921;-75
2023/05/28 09:52:32;;;;;;;0.88;0.70;;;;;;;24.06;40.74;99717.19;5034436;28;20041;-71
2023/05/28 09:55:06;;;;;;;1.73;1.60;;;;;;;24.04;41.57;99711.22;5034623;28;20561;-73
2023/05/28 09:57:41;;;;;;;0.57;0.55;;;;;;;23.87;41.30;99718.19;5031477;28;20503;-74
2023/05/28 10:00:22;;;;;;;1.42;0.68;;;;;;;23.89;41.72;99721.59;5023947;28;20045;-73
2023/05/28 10:03:14;;;;;;;1.55;0.63;;;;;;;23.88;41.05;99716.44;5023940;28;20088;-73
2023/05/28 10:05:49;;;;;;;0.80;0.80;;;;;;;24.02;41.43;99715.69;5023759;28;20034;-72
2023/05/28 10:08:20;;;;;;;0.77;0.77;;;;;;;24.06;41.53;99709.38;5024579;28;20513;-73
2023/05/28 10:10:52;;;;;;;0.73;0.70;;;;;;;24.05;41.53;99712.91;5024078;28;20038;-72
2023/05/28 10:13:22;;;;;;;0.40;0.40;;;;;;;24.18;41.21;99711.34;5025101;28;20457;-74
2023/05/28 10:15:53;;;;;;;0.90;0.80;;;;;;;24.24;40.68;99714.44;5040303;28;20045;-72
2023/05/28 10:18:25;;;;;;;2.88;2.00;;;;;;;23.95;40.76;99715.16;5024714;28;20389;-73
2023/05/28 10:20:55;;;;;;;0.98;0.88;;;;;;;23.95;40.84;99710.81;5023187;28;20128;-73
2023/05/28 10:23:26;;;;;;;0.43;0.43;;;;;;;24.00;40.84;99707.94;5031648;28;20034;-72
2023/05/28 10:25:56;;;;;;;0.80;0.80;;;;;;;24.20;41.59;99704.25;5034146;28;20121;-73
2023/05/28 10:28:25;;;;;;;0.73;0.73;;;;;;;24.37;41.79;99707.63;5029161;28;20132;-72
2023/05/28 10:31:04;;;;;;;0.50;0.50;;;;;;;24.30;41.06;99698.44;5019084;28;20057;-73
2023/05/28 10:33:38;;;;;;;0.75;0.75;;;;;;;24.25;40.63;99691.81;5022528;28;20507;-73
2023/05/28 10:36:12;;;;;;;1.15;0.73;;;;;;;24.26;40.70;99694.31;5024528;28;20121;-72
2023/05/28 10:38:45;;;;;;;0.88;0.80;;;;;;;24.39;41.36;99689.25;5022156;28;20034;-73
2023/05/28 10:41:21;;;;;;;0.68;0.68;;;;;;;24.52;41.42;99695.47;5021910;28;20057;-72
2023/05/28 10:43:50;;;;;;;0.55;0.55;;;;;;;24.61;41.88;99684.47;5025641;28;20042;-73
2023/05/28 10:46:21;;;;;;;0.80;0.80;;;;;;;24.90;41.96;99683.66;5024828;28;20095;-73
2023/05/28 10:49:10;;;;;;;0.70;0.70;;;;;;;24.83;41.44;99678.88;5033897;28;20049;-73
2023/05/28 10:51:51;;;;;;;1.00;0.75;;;;;;;24.82;41.70;99685.88;5032536;28;20446;-71
2023/05/28 10:54:40;;;;;;;0.40;0.40;;;;;;;24.89;41.76;99679.34;5033499;28;20045;-73
2023/05/28 10:57:10;;;;;;;0.82;0.82;;;;;;;24.88;41.66;99682.06;5033451;28;20045;-71
2023/05/28 10:59:47;;;;;;;1.30;1.08;;;;;;;24.85;41.30;99672.63;5049265;28;20033;-71
2023/05/28 11:02:23;;;;;;;0.75;0.75;;;;;;;25.01;41.13;99675.16;5024594;28;20065;-74
2023/05/28 11:04:55;;;;;;;2.72;0.80;;;;;;;25.14;40.20;99650.84;5032234;28;20037;-72
2023/05/28 11:07:30;;;;;;;0.65;0.50;;;;;;;25.31;39.10;99666.31;5033464;28;20045;-73
2023/05/28 11:10:01;;;;;;;0.30;0.30;;;;;;;25.26;39.32;99660.53;5033384;28;20049;-70
2023/05/28 11:12:31;;;;;;;0.60;0.60;;;;;;;25.38;38.98;99666.78;5027759;28;20058;-73
2023/05/28 11:15:00;;;;;;;0.80;0.80;;;;;;;25.18;38.43;99665.38;5018036;28;20077;-74
2023/05/28 11:17:29;;;;;;;0.60;0.60;;;;;;;25.22;38.31;99660.78;5017863;28;20447;-73
2023/05/28 11:19:59;;;;;;;0.77;0.70;;;;;;;25.28;38.88;99661.28;5018077;28;20050;-71
2023/05/28 11:22:36;;;;;;;0.70;0.70;;;;;;;25.44;39.32;99655.09;5017432;28;20175;-73
2023/05/28 11:25:08;;;;;;;0.63;0.55;;;;;;;25.46;39.00;99642.84;5017626;28;20128;-74
2023/05/28 11:27:38;;;;;;;1.33;0.95;;;;;;;25.47;39.05;99655.78;5017453;28;20159;-72
2023/05/28 11:30:11;;;;;;;0.63;0.63;;;;;;;25.47;38.95;99644.50;5017525;28;20046;-72
2023/05/28 11:32:41;;;;;;;2.05;1.15;;;;;;;25.70;39.56;99651.72;5017363;28;20041;-74
2023/05/28 11:35:13;;;;;;;0.98;0.95;;;;;;;25.67;38.70;99620.56;5017138;28;20045;-73
2023/05/28 11:37:44;;;;;;;0.70;0.70;;;;;;;25.79;38.48;99640.72;5017306;28;20053;-75
2023/05/28 11:40:14;;;;;;;1.00;0.82;;;;;;;25.59;38.07;99635.88;5017121;28;20132;-72
2023/05/28 11:42:45;;;;;;;0.82;0.75;;;;;;;25.62;38.05;99626.09;5016531;28;20056;-73
2023/05/28 11:45:14;;;;;;;2.10;1.00;;;;;;;25.67;38.46;99621.41;5017065;28;20045;-72
2023/05/28 11:47:43;;;;;;;3.97;1.85;;;;;;;25.78;39.55;99633.78;5016736;28;20120;-72
2023/05/28 11:50:15;;;;;;;0.70;0.60;;;;;;;26.11;40.99;99621.16;5016919;28;20112;-72
2023/05/28 11:52:45;;;;;;;0.95;0.90;;;;;;;26.29;40.89;99627.84;5016854;28;20073;-72
2023/05/28 11:55:16;;;;;;;0.60;0.60;;;;;;;26.09;39.30;99625.63;5023935;28;20045;-74